sensor_id;sensor_type;location;lat;lon;timestamp;P1;durP1;ratioP1;P2;durP2;ratioP2
75316;SDS011;63913;51.492;10.368;2022-10-30T00:00:38;12.07;;;5.22;;
75316;SDS011;63913;51.492;10.368;2022-10-30T00:03:04;10.55;;;4.13;;
75316;SDS011;63913;51.492;10.368;2022-10-30T00:05:29;11.05;;;3.95;;
75316;SDS011;63913;51.492;10.368;2022-10-30T00:07:55;6.77;;;3.63;;
75316;SDS011;63913;51.492;10.368;2022-10-30T00:10:20;6.90;;;3.35;;
75316;SDS011;63913;51.492;10.368;2022-10-30T00:12:46;9.75;;;2.78;;
75316;SDS011;63913;51.492;10.368;2022-10-30T00:15:11;7.30;;;3.00;;
75316;SDS011;63913;51.492;10.368;2022-10-30T00:17:37;7.43;;;3.28;;
75316;SDS011;63913;51.492;10.368;2022-10-30T00:20:02;7.55;;;3.17;;
75316;SDS011;63913;51.492;10.368;2022-10-30T00:22:28;7.22;;;3.70;;
75316;SDS011;63913;51.492;10.368;2022-10-30T00:24:54;3.50;;;2.65;;
75316;SDS011;63913;51.492;10.368;2022-10-30T00:27:19;7.43;;;3.27;;
75316;SDS011;63913;51.492;10.368;2022-10-30T00:29:44;10.43;;;4.10;;
75316;SDS011;63913;51.492;10.368;2022-10-30T00:32:10;9.37;;;3.50;;
75316;SDS011;63913;51.492;10.368;2022-10-30T00:34:35;8.37;;;3.53;;
75316;SDS011;63913;51.492;10.368;2022-10-30T00:37:00;7.07;;;3.23;;
75316;SDS011;63913;51.492;10.368;2022-10-30T00:39:25;9.03;;;3.33;;
75316;SDS011;63913;51.492;10.368;2022-10-30T00:41:51;8.23;;;4.40;;
75316;SDS011;63913;51.492;10.368;2022-10-30T00:46:57;7.85;;;3.80;;
75316;SDS011;63913;51.492;10.368;2022-10-30T00:49:24;11.32;;;5.00;;
75316;SDS011;63913;51.492;10.368;2022-10-30T00:51:50;14.27;;;6.03;;
75316;SDS011;63913;51.492;10.368;2022-10-30T00:54:18;13.27;;;6.25;;
75316;SDS011;63913;51.492;10.368;2022-10-30T00:56:44;14.20;;;6.00;;
75316;SDS011;63913;51.492;10.368;2022-10-30T00:59:12;14.70;;;6.93;;
75316;SDS011;63913;51.492;10.368;2022-10-30T01:01:42;16.00;;;6.13;;
75316;SDS011;63913;51.492;10.368;2022-10-30T01:04:10;18.63;;;6.60;;
75316;SDS011;63913;51.492;10.368;2022-10-30T01:06:37;13.35;;;6.30;;
75316;SDS011;63913;51.492;10.368;2022-10-30T01:09:06;15.32;;;6.03;;
75316;SDS011;63913;51.492;10.368;2022-10-30T01:11:31;11.50;;;5.43;;
75316;SDS011;63913;51.492;10.368;2022-10-30T01:13:57;11.82;;;5.00;;
75316;SDS011;63913;51.492;10.368;2022-10-30T01:16:41;19.80;;;5.95;;
75316;SDS011;63913;51.492;10.368;2022-10-30T01:28:12;9.23;;;4.10;;
75316;SDS011;63913;51.492;10.368;2022-10-30T01:31:01;7.95;;;4.25;;
75316;SDS011;63913;51.492;10.368;2022-10-30T01:39:28;10.90;;;4.65;;
75316;SDS011;63913;51.492;10.368;2022-10-30T01:41:58;9.38;;;4.13;;
75316;SDS011;63913;51.492;10.368;2022-10-30T01:44:24;10.73;;;4.37;;
75316;SDS011;63913;51.492;10.368;2022-10-30T01:49:26;11.20;;;3.77;;
75316;SDS011;63913;51.492;10.368;2022-10-30T01:52:05;9.07;;;3.25;;
75316;SDS011;63913;51.492;10.368;2022-10-30T01:54:37;8.48;;;3.78;;
75316;SDS011;63913;51.492;10.368;2022-10-30T01:59:52;5.20;;;2.83;;
75316;SDS011;63913;51.492;10.368;2022-10-30T02:02:21;5.30;;;3.08;;
75316;SDS011;63913;51.492;10.368;2022-10-30T02:04:47;5.93;;;3.67;;
75316;SDS011;63913;51.492;10.368;2022-10-30T02:07:13;8.40;;;3.70;;
75316;SDS011;63913;51.492;10.368;2022-10-30T02:09:38;7.07;;;2.85;;
75316;SDS011;63913;51.492;10.368;2022-10-30T02:12:04;7.22;;;3.25;;
75316;SDS011;63913;51.492;10.368;2022-10-30T02:14:32;8.43;;;3.13;;
75316;SDS011;63913;51.492;10.368;2022-10-30T02:17:01;6.60;;;2.63;;
75316;SDS011;63913;51.492;10.368;2022-10-30T02:19:29;4.40;;;2.90;;
75316;SDS011;63913;51.492;10.368;2022-10-30T02:21:54;8.83;;;2.73;;
75316;SDS011;63913;51.492;10.368;2022-10-30T02:24:19;5.90;;;3.13;;
75316;SDS011;63913;51.492;10.368;2022-10-30T02:26:44;5.97;;;3.10;;
75316;SDS011;63913;51.492;10.368;2022-10-30T02:29:10;8.75;;;2.80;;
75316;SDS011;63913;51.492;10.368;2022-10-30T02:31:36;6.40;;;3.35;;
75316;SDS011;63913;51.492;10.368;2022-10-30T02:34:02;9.48;;;2.88;;
75316;SDS011;63913;51.492;10.368;2022-10-30T02:36:27;5.90;;;3.17;;
75316;SDS011;63913;51.492;10.368;2022-10-30T02:38:53;5.90;;;3.03;;
75316;SDS011;63913;51.492;10.368;2022-10-30T02:41:19;8.43;;;2.85;;
75316;SDS011;63913;51.492;10.368;2022-10-30T02:43:45;6.45;;;3.15;;
75316;SDS011;63913;51.492;10.368;2022-10-30T02:46:10;5.43;;;2.67;;
75316;SDS011;63913;51.492;10.368;2022-10-30T02:48:36;5.67;;;2.77;;
75316;SDS011;63913;51.492;10.368;2022-10-30T02:51:02;7.28;;;2.80;;
75316;SDS011;63913;51.492;10.368;2022-10-30T02:53:28;8.45;;;3.30;;
75316;SDS011;63913;51.492;10.368;2022-10-30T02:55:53;8.20;;;3.30;;
75316;SDS011;63913;51.492;10.368;2022-10-30T02:58:19;6.43;;;2.50;;
75316;SDS011;63913;51.492;10.368;2022-10-30T03:00:44;7.68;;;2.85;;
75316;SDS011;63913;51.492;10.368;2022-10-30T03:03:10;6.80;;;3.77;;
75316;SDS011;63913;51.492;10.368;2022-10-30T03:05:35;5.72;;;2.70;;
75316;SDS011;63913;51.492;10.368;2022-10-30T03:08:00;5.87;;;3.00;;
75316;SDS011;63913;51.492;10.368;2022-10-30T03:10:26;7.93;;;3.00;;
75316;SDS011;63913;51.492;10.368;2022-10-30T03:12:51;6.93;;;3.40;;
75316;SDS011;63913;51.492;10.368;2022-10-30T03:15:16;8.40;;;3.13;;
75316;SDS011;63913;51.492;10.368;2022-10-30T03:17:42;11.90;;;3.00;;
75316;SDS011;63913;51.492;10.368;2022-10-30T03:20:08;9.20;;;3.30;;
75316;SDS011;63913;51.492;10.368;2022-10-30T03:22:33;10.82;;;3.72;;
75316;SDS011;63913;51.492;10.368;2022-10-30T03:24:59;7.80;;;3.20;;
75316;SDS011;63913;51.492;10.368;2022-10-30T03:27:24;6.93;;;3.40;;
75316;SDS011;63913;51.492;10.368;2022-10-30T03:29:49;9.17;;;3.17;;
75316;SDS011;63913;51.492;10.368;2022-10-30T03:32:15;8.75;;;3.25;;
75316;SDS011;63913;51.492;10.368;2022-10-30T03:34:40;9.93;;;3.80;;
75316;SDS011;63913;51.492;10.368;2022-10-30T03:37:05;11.17;;;3.47;;
75316;SDS011;63913;51.492;10.368;2022-10-30T03:39:31;9.05;;;3.65;;
75316;SDS011;63913;51.492;10.368;2022-10-30T03:41:56;9.55;;;4.00;;
75316;SDS011;63913;51.492;10.368;2022-10-30T03:44:21;8.37;;;3.67;;
75316;SDS011;63913;51.492;10.368;2022-10-30T03:46:47;7.63;;;3.30;;
75316;SDS011;63913;51.492;10.368;2022-10-30T03:49:12;11.20;;;3.77;;
75316;SDS011;63913;51.492;10.368;2022-10-30T03:51:37;11.93;;;4.00;;
75316;SDS011;63913;51.492;10.368;2022-10-30T03:54:02;12.70;;;4.00;;
75316;SDS011;63913;51.492;10.368;2022-10-30T03:56:28;7.03;;;3.53;;
75316;SDS011;63913;51.492;10.368;2022-10-30T03:58:53;6.50;;;3.57;;
75316;SDS011;63913;51.492;10.368;2022-10-30T04:01:19;10.07;;;3.20;;
75316;SDS011;63913;51.492;10.368;2022-10-30T04:03:44;5.65;;;3.38;;
75316;SDS011;63913;51.492;10.368;2022-10-30T04:06:09;8.00;;;3.25;;
75316;SDS011;63913;51.492;10.368;2022-10-30T04:08:35;7.15;;;3.45;;
75316;SDS011;63913;51.492;10.368;2022-10-30T04:11:00;7.30;;;3.23;;
75316;SDS011;63913;51.492;10.368;2022-10-30T04:13:26;8.98;;;3.45;;
75316;SDS011;63913;51.492;10.368;2022-10-30T04:15:51;10.32;;;3.13;;
75316;SDS011;63913;51.492;10.368;2022-10-30T04:18:17;6.45;;;2.80;;
75316;SDS011;63913;51.492;10.368;2022-10-30T04:20:43;5.05;;;3.03;;
75316;SDS011;63913;51.492;10.368;2022-10-30T04:23:11;8.98;;;2.97;;
75316;SDS011;63913;51.492;10.368;2022-10-30T04:25:38;5.78;;;2.60;;
75316;SDS011;63913;51.492;10.368;2022-10-30T04:28:04;4.68;;;2.80;;
75316;SDS011;63913;51.492;10.368;2022-10-30T04:30:29;10.00;;;3.25;;
75316;SDS011;63913;51.492;10.368;2022-10-30T04:32:59;7.78;;;2.55;;
75316;SDS011;63913;51.492;10.368;2022-10-30T04:35:27;6.45;;;2.80;;
75316;SDS011;63913;51.492;10.368;2022-10-30T04:37:54;7.70;;;2.58;;
75316;SDS011;63913;51.492;10.368;2022-10-30T04:40:21;5.25;;;2.40;;
75316;SDS011;63913;51.492;10.368;2022-10-30T04:42:48;6.18;;;2.63;;
75316;SDS011;63913;51.492;10.368;2022-10-30T04:45:14;6.03;;;2.60;;
75316;SDS011;63913;51.492;10.368;2022-10-30T04:47:45;7.80;;;2.58;;
75316;SDS011;63913;51.492;10.368;2022-10-30T04:50:11;6.45;;;2.53;;
75316;SDS011;63913;51.492;10.368;2022-10-30T04:52:37;5.60;;;2.40;;
75316;SDS011;63913;51.492;10.368;2022-10-30T04:55:03;5.68;;;2.63;;
75316;SDS011;63913;51.492;10.368;2022-10-30T04:57:29;9.02;;;2.80;;
75316;SDS011;63913;51.492;10.368;2022-10-30T04:59:58;8.15;;;3.05;;
75316;SDS011;63913;51.492;10.368;2022-10-30T05:02:23;6.25;;;2.72;;
75316;SDS011;63913;51.492;10.368;2022-10-30T05:04:49;7.10;;;2.35;;
75316;SDS011;63913;51.492;10.368;2022-10-30T05:07:14;5.28;;;2.65;;
75316;SDS011;63913;51.492;10.368;2022-10-30T05:09:41;7.50;;;2.90;;
75316;SDS011;63913;51.492;10.368;2022-10-30T05:12:06;12.53;;;3.00;;
75316;SDS011;63913;51.492;10.368;2022-10-30T05:14:32;6.90;;;2.80;;
75316;SDS011;63913;51.492;10.368;2022-10-30T05:16:58;7.53;;;2.75;;
75316;SDS011;63913;51.492;10.368;2022-10-30T05:19:23;7.00;;;2.70;;
75316;SDS011;63913;51.492;10.368;2022-10-30T05:21:49;7.57;;;2.85;;
75316;SDS011;63913;51.492;10.368;2022-10-30T05:24:14;5.85;;;2.28;;
75316;SDS011;63913;51.492;10.368;2022-10-30T05:26:40;6.63;;;3.47;;
75316;SDS011;63913;51.492;10.368;2022-10-30T05:29:05;8.27;;;2.58;;
75316;SDS011;63913;51.492;10.368;2022-10-30T05:31:31;8.93;;;2.70;;
75316;SDS011;63913;51.492;10.368;2022-10-30T05:33:56;7.73;;;2.77;;
75316;SDS011;63913;51.492;10.368;2022-10-30T05:36:21;6.47;;;2.83;;
75316;SDS011;63913;51.492;10.368;2022-10-30T05:38:47;5.63;;;2.72;;
75316;SDS011;63913;51.492;10.368;2022-10-30T05:41:12;6.65;;;2.75;;
75316;SDS011;63913;51.492;10.368;2022-10-30T05:43:38;8.02;;;2.88;;
75316;SDS011;63913;51.492;10.368;2022-10-30T05:46:03;13.80;;;3.20;;
75316;SDS011;63913;51.492;10.368;2022-10-30T05:48:28;4.68;;;2.33;;
75316;SDS011;63913;51.492;10.368;2022-10-30T05:50:56;7.03;;;2.70;;
75316;SDS011;63913;51.492;10.368;2022-10-30T05:53:21;7.90;;;3.03;;
75316;SDS011;63913;51.492;10.368;2022-10-30T05:55:47;4.93;;;2.67;;
75316;SDS011;63913;51.492;10.368;2022-10-30T05:58:13;10.02;;;3.10;;
75316;SDS011;63913;51.492;10.368;2022-10-30T06:00:38;8.27;;;2.50;;
75316;SDS011;63913;51.492;10.368;2022-10-30T06:03:05;7.88;;;2.67;;
75316;SDS011;63913;51.492;10.368;2022-10-30T06:05:35;7.10;;;2.58;;
75316;SDS011;63913;51.492;10.368;2022-10-30T06:08:01;4.82;;;2.47;;
75316;SDS011;63913;51.492;10.368;2022-10-30T06:10:27;8.18;;;2.55;;
75316;SDS011;63913;51.492;10.368;2022-10-30T06:12:53;6.05;;;2.55;;
75316;SDS011;63913;51.492;10.368;2022-10-30T06:15:20;7.10;;;2.38;;
75316;SDS011;63913;51.492;10.368;2022-10-30T06:17:45;7.43;;;2.47;;
75316;SDS011;63913;51.492;10.368;2022-10-30T06:20:11;6.97;;;2.50;;
75316;SDS011;63913;51.492;10.368;2022-10-30T06:22:36;5.40;;;3.28;;
75316;SDS011;63913;51.492;10.368;2022-10-30T06:25:01;4.63;;;2.10;;
75316;SDS011;63913;51.492;10.368;2022-10-30T06:27:27;7.32;;;3.28;;
75316;SDS011;63913;51.492;10.368;2022-10-30T06:29:52;4.88;;;2.28;;
75316;SDS011;63913;51.492;10.368;2022-10-30T06:32:19;8.52;;;3.00;;
75316;SDS011;63913;51.492;10.368;2022-10-30T06:34:44;5.18;;;2.30;;
75316;SDS011;63913;51.492;10.368;2022-10-30T06:37:10;7.20;;;2.60;;
75316;SDS011;63913;51.492;10.368;2022-10-30T06:39:35;10.60;;;2.65;;
75316;SDS011;63913;51.492;10.368;2022-10-30T06:42:01;10.63;;;2.88;;
75316;SDS011;63913;51.492;10.368;2022-10-30T06:44:26;6.77;;;2.77;;
75316;SDS011;63913;51.492;10.368;2022-10-30T06:46:52;8.97;;;3.10;;
75316;SDS011;63913;51.492;10.368;2022-10-30T06:49:17;4.78;;;2.78;;
75316;SDS011;63913;51.492;10.368;2022-10-30T06:51:43;4.30;;;2.30;;
75316;SDS011;63913;51.492;10.368;2022-10-30T06:54:08;5.75;;;2.80;;
75316;SDS011;63913;51.492;10.368;2022-10-30T06:56:33;6.47;;;2.80;;
75316;SDS011;63913;51.492;10.368;2022-10-30T06:58:59;7.07;;;2.92;;
75316;SDS011;63913;51.492;10.368;2022-10-30T07:01:24;8.57;;;2.50;;
75316;SDS011;63913;51.492;10.368;2022-10-30T07:03:49;7.17;;;2.60;;
75316;SDS011;63913;51.492;10.368;2022-10-30T07:06:15;4.93;;;2.40;;
75316;SDS011;63913;51.492;10.368;2022-10-30T07:08:40;7.32;;;2.65;;
75316;SDS011;63913;51.492;10.368;2022-10-30T07:11:05;10.73;;;2.93;;
75316;SDS011;63913;51.492;10.368;2022-10-30T07:13:31;4.13;;;2.23;;
75316;SDS011;63913;51.492;10.368;2022-10-30T07:15:57;5.83;;;3.23;;
75316;SDS011;63913;51.492;10.368;2022-10-30T07:18:23;5.88;;;2.40;;
75316;SDS011;63913;51.492;10.368;2022-10-30T07:20:52;5.80;;;3.25;;
75316;SDS011;63913;51.492;10.368;2022-10-30T07:23:20;5.50;;;2.95;;
75316;SDS011;63913;51.492;10.368;2022-10-30T07:25:46;7.30;;;2.30;;
75316;SDS011;63913;51.492;10.368;2022-10-30T07:28:12;6.47;;;3.13;;
75316;SDS011;63913;51.492;10.368;2022-10-30T07:30:37;9.07;;;3.38;;
75316;SDS011;63913;51.492;10.368;2022-10-30T07:33:03;6.20;;;3.00;;
75316;SDS011;63913;51.492;10.368;2022-10-30T07:35:30;4.30;;;2.60;;
75316;SDS011;63913;51.492;10.368;2022-10-30T07:38:00;9.57;;;2.70;;
75316;SDS011;63913;51.492;10.368;2022-10-30T07:40:27;4.50;;;2.70;;
75316;SDS011;63913;51.492;10.368;2022-10-30T07:42:56;6.70;;;2.50;;
75316;SDS011;63913;51.492;10.368;2022-10-30T07:45:22;7.03;;;2.83;;
75316;SDS011;63913;51.492;10.368;2022-10-30T07:47:48;5.40;;;2.60;;
75316;SDS011;63913;51.492;10.368;2022-10-30T07:50:13;9.63;;;2.93;;
75316;SDS011;63913;51.492;10.368;2022-10-30T07:52:38;6.88;;;2.58;;
75316;SDS011;63913;51.492;10.368;2022-10-30T07:55:04;5.07;;;2.57;;
75316;SDS011;63913;51.492;10.368;2022-10-30T07:57:33;6.28;;;2.60;;
75316;SDS011;63913;51.492;10.368;2022-10-30T08:00:00;7.68;;;2.95;;
75316;SDS011;63913;51.492;10.368;2022-10-30T08:02:25;7.95;;;3.33;;
75316;SDS011;63913;51.492;10.368;2022-10-30T08:04:51;4.50;;;2.70;;
75316;SDS011;63913;51.492;10.368;2022-10-30T08:07:16;9.23;;;2.93;;
75316;SDS011;63913;51.492;10.368;2022-10-30T08:09:41;7.53;;;3.15;;
75316;SDS011;63913;51.492;10.368;2022-10-30T08:12:07;5.43;;;2.80;;
75316;SDS011;63913;51.492;10.368;2022-10-30T08:14:32;9.80;;;2.43;;
75316;SDS011;63913;51.492;10.368;2022-10-30T08:16:58;8.68;;;2.70;;
75316;SDS011;63913;51.492;10.368;2022-10-30T08:19:24;8.57;;;3.47;;
75316;SDS011;63913;51.492;10.368;2022-10-30T08:21:51;5.93;;;2.58;;
75316;SDS011;63913;51.492;10.368;2022-10-30T08:24:17;8.53;;;2.50;;
75316;SDS011;63913;51.492;10.368;2022-10-30T08:26:42;10.20;;;2.53;;
75316;SDS011;63913;51.492;10.368;2022-10-30T08:29:07;5.60;;;2.67;;
75316;SDS011;63913;51.492;10.368;2022-10-30T08:31:33;6.07;;;2.67;;
75316;SDS011;63913;51.492;10.368;2022-10-30T08:33:58;10.27;;;3.03;;
75316;SDS011;63913;51.492;10.368;2022-10-30T08:36:23;7.22;;;2.42;;
75316;SDS011;63913;51.492;10.368;2022-10-30T08:38:48;6.90;;;2.50;;
75316;SDS011;63913;51.492;10.368;2022-10-30T08:41:14;4.67;;;2.53;;
75316;SDS011;63913;51.492;10.368;2022-10-30T08:43:39;8.30;;;2.90;;
75316;SDS011;63913;51.492;10.368;2022-10-30T08:46:04;6.78;;;2.90;;
75316;SDS011;63913;51.492;10.368;2022-10-30T08:48:30;6.10;;;2.35;;
75316;SDS011;63913;51.492;10.368;2022-10-30T08:50:58;8.10;;;2.80;;
75316;SDS011;63913;51.492;10.368;2022-10-30T08:53:25;9.70;;;2.83;;
75316;SDS011;63913;51.492;10.368;2022-10-30T08:55:50;8.95;;;3.00;;
75316;SDS011;63913;51.492;10.368;2022-10-30T08:58:16;5.50;;;2.63;;
75316;SDS011;63913;51.492;10.368;2022-10-30T09:00:41;7.47;;;3.13;;
75316;SDS011;63913;51.492;10.368;2022-10-30T09:03:06;10.03;;;2.97;;
75316;SDS011;63913;51.492;10.368;2022-10-30T09:05:31;9.73;;;4.07;;
75316;SDS011;63913;51.492;10.368;2022-10-30T09:07:57;5.90;;;2.63;;
75316;SDS011;63913;51.492;10.368;2022-10-30T09:10:24;6.68;;;2.38;;
75316;SDS011;63913;51.492;10.368;2022-10-30T09:12:53;8.15;;;2.67;;
75316;SDS011;63913;51.492;10.368;2022-10-30T09:15:22;5.82;;;2.40;;
75316;SDS011;63913;51.492;10.368;2022-10-30T09:17:56;6.05;;;3.22;;
75316;SDS011;63913;51.492;10.368;2022-10-30T09:20:22;27.05;;;9.45;;
75316;SDS011;63913;51.492;10.368;2022-10-30T09:22:48;67.30;;;23.63;;
75316;SDS011;63913;51.492;10.368;2022-10-30T09:25:13;30.37;;;10.13;;
75316;SDS011;63913;51.492;10.368;2022-10-30T09:27:38;23.85;;;8.38;;
75316;SDS011;63913;51.492;10.368;2022-10-30T09:30:04;19.73;;;6.83;;
75316;SDS011;63913;51.492;10.368;2022-10-30T09:32:30;8.70;;;3.45;;
75316;SDS011;63913;51.492;10.368;2022-10-30T09:34:55;7.78;;;2.97;;
75316;SDS011;63913;51.492;10.368;2022-10-30T09:37:20;7.80;;;3.10;;
75316;SDS011;63913;51.492;10.368;2022-10-30T09:39:47;8.18;;;2.95;;
75316;SDS011;63913;51.492;10.368;2022-10-30T09:42:22;5.97;;;2.53;;
75316;SDS011;63913;51.492;10.368;2022-10-30T09:56:14;10.77;;;4.05;;
75316;SDS011;63913;51.492;10.368;2022-10-30T10:04:43;5.70;;;2.90;;
75316;SDS011;63913;51.492;10.368;2022-10-30T10:07:15;5.10;;;2.80;;
75316;SDS011;63913;51.492;10.368;2022-10-30T10:09:45;6.10;;;3.08;;
75316;SDS011;63913;51.492;10.368;2022-10-30T10:12:20;5.75;;;3.35;;
75316;SDS011;63913;51.492;10.368;2022-10-30T10:14:53;10.00;;;3.28;;
75316;SDS011;63913;51.492;10.368;2022-10-30T10:17:33;7.15;;;2.55;;
75316;SDS011;63913;51.492;10.368;2022-10-30T10:20:02;6.95;;;3.22;;
75316;SDS011;63913;51.492;10.368;2022-10-30T10:22:44;7.25;;;2.92;;
75316;SDS011;63913;51.492;10.368;2022-10-30T10:25:16;6.38;;;2.85;;
75316;SDS011;63913;51.492;10.368;2022-10-30T10:30:18;4.70;;;2.85;;
75316;SDS011;63913;51.492;10.368;2022-10-30T10:43:45;7.28;;;3.17;;
75316;SDS011;63913;51.492;10.368;2022-10-30T10:49:30;8.40;;;2.72;;
75316;SDS011;63913;51.492;10.368;2022-10-30T10:54:48;7.28;;;2.50;;
75316;SDS011;63913;51.492;10.368;2022-10-30T10:57:37;8.52;;;3.38;;
75316;SDS011;63913;51.492;10.368;2022-10-30T11:00:05;7.43;;;2.60;;
75316;SDS011;63913;51.492;10.368;2022-10-30T11:02:42;7.88;;;3.47;;
75316;SDS011;63913;51.492;10.368;2022-10-30T11:05:17;7.20;;;2.55;;
75316;SDS011;63913;51.492;10.368;2022-10-30T11:07:50;8.13;;;2.75;;
75316;SDS011;63913;51.492;10.368;2022-10-30T11:10:17;6.57;;;2.88;;
75316;SDS011;63913;51.492;10.368;2022-10-30T11:12:43;8.32;;;2.60;;
75316;SDS011;63913;51.492;10.368;2022-10-30T11:15:17;8.00;;;3.20;;
75316;SDS011;63913;51.492;10.368;2022-10-30T11:20:54;6.32;;;2.67;;
75316;SDS011;63913;51.492;10.368;2022-10-30T11:36:45;7.28;;;2.33;;
75316;SDS011;63913;51.492;10.368;2022-10-30T11:44:34;3.58;;;2.38;;
75316;SDS011;63913;51.492;10.368;2022-10-30T11:47:02;7.03;;;2.20;;
75316;SDS011;63913;51.492;10.368;2022-10-30T11:49:30;6.65;;;2.33;;
75316;SDS011;63913;51.492;10.368;2022-10-30T11:52:03;6.13;;;2.50;;
75316;SDS011;63913;51.492;10.368;2022-10-30T11:54:33;6.93;;;2.63;;
75316;SDS011;63913;51.492;10.368;2022-10-30T11:57:01;8.68;;;2.60;;
75316;SDS011;63913;51.492;10.368;2022-10-30T11:59:28;6.30;;;2.55;;
75316;SDS011;63913;51.492;10.368;2022-10-30T12:01:57;6.68;;;2.33;;
75316;SDS011;63913;51.492;10.368;2022-10-30T12:04:25;3.83;;;2.25;;
75316;SDS011;63913;51.492;10.368;2022-10-30T12:07:08;6.43;;;2.80;;
75316;SDS011;63913;51.492;10.368;2022-10-30T12:09:52;9.40;;;2.60;;
75316;SDS011;63913;51.492;10.368;2022-10-30T12:12:28;6.22;;;2.78;;
75316;SDS011;63913;51.492;10.368;2022-10-30T12:15:08;9.57;;;3.25;;
75316;SDS011;63913;51.492;10.368;2022-10-30T12:17:37;6.75;;;2.50;;
75316;SDS011;63913;51.492;10.368;2022-10-30T12:20:04;7.53;;;2.55;;
75316;SDS011;63913;51.492;10.368;2022-10-30T12:22:31;5.88;;;2.38;;
75316;SDS011;63913;51.492;10.368;2022-10-30T12:25:05;7.35;;;3.08;;
75316;SDS011;63913;51.492;10.368;2022-10-30T12:27:39;6.68;;;2.40;;
75316;SDS011;63913;51.492;10.368;2022-10-30T12:30:06;5.22;;;2.80;;
75316;SDS011;63913;51.492;10.368;2022-10-30T12:32:43;5.93;;;2.42;;
75316;SDS011;63913;51.492;10.368;2022-10-30T12:35:15;9.10;;;2.42;;
75316;SDS011;63913;51.492;10.368;2022-10-30T12:38:00;5.93;;;2.38;;
75316;SDS011;63913;51.492;10.368;2022-10-30T12:40:29;9.18;;;2.80;;
75316;SDS011;63913;51.492;10.368;2022-10-30T12:43:02;6.10;;;2.75;;
75316;SDS011;63913;51.492;10.368;2022-10-30T12:48:07;3.53;;;2.33;;
75316;SDS011;63913;51.492;10.368;2022-10-30T12:56:33;6.93;;;2.50;;
75316;SDS011;63913;51.492;10.368;2022-10-30T12:59:17;4.18;;;2.40;;
75316;SDS011;63913;51.492;10.368;2022-10-30T13:04:21;7.10;;;2.60;;
75316;SDS011;63913;51.492;10.368;2022-10-30T13:06:56;9.68;;;2.92;;
75316;SDS011;63913;51.492;10.368;2022-10-30T13:09:42;5.53;;;2.40;;
75316;SDS011;63913;51.492;10.368;2022-10-30T13:14:55;6.85;;;2.53;;
75316;SDS011;63913;51.492;10.368;2022-10-30T13:17:41;6.75;;;2.33;;
75316;SDS011;63913;51.492;10.368;2022-10-30T13:20:13;6.07;;;2.77;;
75316;SDS011;63913;51.492;10.368;2022-10-30T13:22:45;7.03;;;2.38;;
75316;SDS011;63913;51.492;10.368;2022-10-30T13:25:21;5.55;;;2.80;;
75316;SDS011;63913;51.492;10.368;2022-10-30T13:27:57;7.90;;;2.03;;
75316;SDS011;63913;51.492;10.368;2022-10-30T13:30:29;7.80;;;2.92;;
75316;SDS011;63913;51.492;10.368;2022-10-30T13:33:17;6.35;;;3.17;;
75316;SDS011;63913;51.492;10.368;2022-10-30T13:39:15;6.47;;;2.50;;
75316;SDS011;63913;51.492;10.368;2022-10-30T13:52:46;5.60;;;2.30;;
75316;SDS011;63913;51.492;10.368;2022-10-30T13:55:21;5.90;;;2.50;;
75316;SDS011;63913;51.492;10.368;2022-10-30T13:57:52;4.82;;;2.97;;
75316;SDS011;63913;51.492;10.368;2022-10-30T14:00:19;6.40;;;2.50;;
75316;SDS011;63913;51.492;10.368;2022-10-30T14:08:34;6.35;;;2.45;;
75316;SDS011;63913;51.492;10.368;2022-10-30T14:11:04;9.20;;;2.70;;
75316;SDS011;63913;51.492;10.368;2022-10-30T14:16:00;3.78;;;2.67;;
75316;SDS011;63913;51.492;10.368;2022-10-30T14:18:44;7.82;;;2.63;;
75316;SDS011;63913;51.492;10.368;2022-10-30T14:24:11;4.45;;;2.33;;
75316;SDS011;63913;51.492;10.368;2022-10-30T14:27:07;9.15;;;2.72;;
75316;SDS011;63913;51.492;10.368;2022-10-30T14:34:42;6.78;;;2.70;;
75316;SDS011;63913;51.492;10.368;2022-10-30T14:42:56;3.42;;;2.15;;
75316;SDS011;63913;51.492;10.368;2022-10-30T14:45:33;5.10;;;2.47;;
75316;SDS011;63913;51.492;10.368;2022-10-30T14:56:44;4.70;;;2.28;;
75316;SDS011;63913;51.492;10.368;2022-10-30T15:15:08;4.65;;;2.40;;
75316;SDS011;63913;51.492;10.368;2022-10-30T15:20:04;8.35;;;2.15;;
75316;SDS011;63913;51.492;10.368;2022-10-30T15:22:33;5.22;;;2.20;;
75316;SDS011;63913;51.492;10.368;2022-10-30T15:25:00;7.40;;;2.70;;
75316;SDS011;63913;51.492;10.368;2022-10-30T15:27:27;4.00;;;2.20;;
75316;SDS011;63913;51.492;10.368;2022-10-30T15:29:54;4.53;;;1.85;;
75316;SDS011;63913;51.492;10.368;2022-10-30T15:32:23;5.47;;;2.35;;
75316;SDS011;63913;51.492;10.368;2022-10-30T15:37:25;6.47;;;2.60;;
75316;SDS011;63913;51.492;10.368;2022-10-30T15:42:38;5.43;;;2.38;;
75316;SDS011;63913;51.492;10.368;2022-10-30T15:45:04;6.60;;;2.50;;
75316;SDS011;63913;51.492;10.368;2022-10-30T15:47:31;4.28;;;2.45;;
75316;SDS011;63913;51.492;10.368;2022-10-30T15:49:57;4.95;;;2.45;;
75316;SDS011;63913;51.492;10.368;2022-10-30T15:52:24;5.78;;;2.63;;
75316;SDS011;63913;51.492;10.368;2022-10-30T15:54:59;7.45;;;2.78;;
75316;SDS011;63913;51.492;10.368;2022-10-30T15:57:31;4.38;;;1.95;;
75316;SDS011;63913;51.492;10.368;2022-10-30T16:00:30;5.97;;;2.47;;
75316;SDS011;63913;51.492;10.368;2022-10-30T16:05:29;8.82;;;2.97;;
75316;SDS011;63913;51.492;10.368;2022-10-30T16:07:57;6.80;;;3.10;;
75316;SDS011;63913;51.492;10.368;2022-10-30T16:10:26;5.55;;;2.53;;
75316;SDS011;63913;51.492;10.368;2022-10-30T16:12:56;7.07;;;2.70;;
75316;SDS011;63913;51.492;10.368;2022-10-30T16:15:24;11.40;;;4.65;;
75316;SDS011;63913;51.492;10.368;2022-10-30T16:20:42;7.65;;;2.70;;
75316;SDS011;63913;51.492;10.368;2022-10-30T16:23:12;6.93;;;2.80;;
75316;SDS011;63913;51.492;10.368;2022-10-30T16:25:39;5.60;;;2.40;;
75316;SDS011;63913;51.492;10.368;2022-10-30T16:28:20;6.15;;;2.40;;
75316;SDS011;63913;51.492;10.368;2022-10-30T16:30:47;8.05;;;2.35;;
75316;SDS011;63913;51.492;10.368;2022-10-30T16:33:13;7.03;;;2.67;;
75316;SDS011;63913;51.492;10.368;2022-10-30T16:35:39;7.90;;;2.90;;
75316;SDS011;63913;51.492;10.368;2022-10-30T16:38:07;7.35;;;2.47;;
75316;SDS011;63913;51.492;10.368;2022-10-30T16:40:35;6.43;;;2.47;;
75316;SDS011;63913;51.492;10.368;2022-10-30T16:43:01;7.20;;;2.63;;
75316;SDS011;63913;51.492;10.368;2022-10-30T16:45:49;3.67;;;2.38;;
75316;SDS011;63913;51.492;10.368;2022-10-30T16:48:18;5.45;;;3.03;;
75316;SDS011;63913;51.492;10.368;2022-10-30T16:50:51;7.70;;;2.63;;
75316;SDS011;63913;51.492;10.368;2022-10-30T16:53:17;4.97;;;2.30;;
75316;SDS011;63913;51.492;10.368;2022-10-30T16:55:46;7.50;;;2.22;;
75316;SDS011;63913;51.492;10.368;2022-10-30T16:58:13;5.40;;;2.25;;
75316;SDS011;63913;51.492;10.368;2022-10-30T17:00:41;5.18;;;2.60;;
75316;SDS011;63913;51.492;10.368;2022-10-30T17:03:15;8.73;;;2.92;;
75316;SDS011;63913;51.492;10.368;2022-10-30T17:05:56;5.82;;;2.50;;
75316;SDS011;63913;51.492;10.368;2022-10-30T17:08:34;7.95;;;2.70;;
75316;SDS011;63913;51.492;10.368;2022-10-30T17:11:05;11.00;;;4.68;;
75316;SDS011;63913;51.492;10.368;2022-10-30T17:13:33;14.73;;;6.97;;
75316;SDS011;63913;51.492;10.368;2022-10-30T17:16:22;15.45;;;6.55;;
75316;SDS011;63913;51.492;10.368;2022-10-30T17:18:57;9.45;;;4.35;;
75316;SDS011;63913;51.492;10.368;2022-10-30T17:24:01;8.95;;;3.97;;
75316;SDS011;63913;51.492;10.368;2022-10-30T17:26:27;15.68;;;11.82;;
75316;SDS011;63913;51.492;10.368;2022-10-30T17:28:59;35.17;;;19.50;;
75316;SDS011;63913;51.492;10.368;2022-10-30T17:31:43;50.35;;;27.25;;